Time;durP1;ratioP1;P1;durP2;ratioP2;P2;SDS_P1;SDS_P2;PMS_P1;PMS_P2;Temp;Humidity;BMP_temperature;BMP_pressure;BME280_temperature;BME280_humidity;BME280_pressure;Samples;Min_cycle;Max_cycle;Signal;HPM_P1;HPM_P2
2023/07/27 00:00:14;;;;;;;7.80;7.50;;;15.30;99.90;;;;;;5053586;28;20210;-65
2023/07/27 00:02:41;;;;;;;7.20;7.00;;;15.30;99.90;;;;;;5054266;28;20235;-64
2023/07/27 00:05:08;;;;;;;7.87;7.57;;;15.30;99.90;;;;;;5054257;28;20220;-65
2023/07/27 00:07:36;;;;;;;7.83;7.53;;;15.30;99.90;;;;;;5054499;28;20215;-63
2023/07/27 00:10:03;;;;;;;7.70;7.40;;;15.20;99.90;;;;;;5053635;28;20203;-64
2023/07/27 00:12:30;;;;;;;7.60;7.37;;;15.20;99.90;;;;;;5053922;28;20212;-62
2023/07/27 00:14:57;;;;;;;7.83;7.53;;;15.30;99.90;;;;;;5053827;28;20283;-64
2023/07/27 00:17:24;;;;;;;8.32;7.95;;;15.30;99.90;;;;;;5060342;28;20728;-64
2023/07/27 00:19:51;;;;;;;8.03;7.73;;;15.20;99.90;;;;;;5051729;28;20265;-64
2023/07/27 00:22:17;;;;;;;7.60;7.40;;;15.20;99.90;;;;;;5053054;28;20284;-64
2023/07/27 00:24:45;;;;;;;8.13;7.83;;;15.20;99.90;;;;;;5055785;28;20200;-65
2023/07/27 00:27:12;;;;;;;7.80;7.57;;;15.20;99.90;;;;;;5064189;28;20207;-65
2023/07/27 00:29:39;;;;;;;8.33;8.00;;;15.20;99.90;;;;;;5063125;28;20690;-65
2023/07/27 00:32:07;;;;;;;8.02;7.72;;;15.10;99.90;;;;;;5063526;28;20287;-63
2023/07/27 00:34:36;;;;;;;8.07;7.77;;;15.00;99.90;;;;;;5062061;28;20206;-63
2023/07/27 00:37:02;;;;;;;7.90;7.60;;;15.10;99.90;;;;;;5062328;28;20203;-66
2023/07/27 00:39:29;;;;;;;8.03;7.73;;;15.00;99.90;;;;;;5062811;28;20215;-66
2023/07/27 00:41:57;;;;;;;8.50;8.10;;;15.00;99.90;;;;;;5067964;28;20223;-64
2023/07/27 00:44:24;;;;;;;8.93;8.25;;;15.00;99.90;;;;;;5060325;28;20199;-66
2023/07/27 00:46:52;;;;;;;8.25;7.95;;;15.00;99.90;;;;;;5064324;28;20223;-65
2023/07/27 00:49:20;;;;;;;8.35;8.05;;;15.00;99.90;;;;;;5062477;28;20222;-62
2023/07/27 00:51:48;;;;;;;8.30;8.00;;;15.10;99.90;;;;;;5063061;28;20211;-64
2023/07/27 00:54:16;;;;;;;8.03;7.73;;;15.00;99.90;;;;;;5065235;28;20739;-66
2023/07/27 00:56:43;;;;;;;8.60;8.30;;;15.00;99.90;;;;;;5063772;28;20212;-65
2023/07/27 00:59:11;;;;;;;8.32;8.02;;;15.00;99.90;;;;;;5062457;28;20469;-65
2023/07/27 01:01:38;;;;;;;8.38;8.07;;;15.00;99.90;;;;;;5062810;28;20238;-64
2023/07/27 01:04:05;;;;;;;7.88;7.57;;;15.00;99.90;;;;;;5063457;28;20196;-64
2023/07/27 01:06:32;;;;;;;8.33;8.03;;;15.00;99.90;;;;;;5062245;28;20454;-65
2023/07/27 01:08:59;;;;;;;8.17;7.87;;;15.00;99.90;;;;;;5070719;28;20234;-62
2023/07/27 01:11:37;;;;;;;8.20;7.90;;;15.10;99.90;;;;;;5066372;28;20212;-64
2023/07/27 01:14:20;;;;;;;8.17;7.87;;;15.10;99.90;;;;;;5052171;28;20211;-64
2023/07/27 01:16:59;;;;;;;8.73;8.43;;;15.10;99.90;;;;;;5067961;28;20203;-63
2023/07/27 01:19:51;;;;;;;8.43;8.13;;;15.20;99.90;;;;;;5051257;28;20665;-64
2023/07/27 01:22:33;;;;;;;8.37;8.07;;;15.20;99.90;;;;;;5052107;28;20290;-64
2023/07/27 01:25:14;;;;;;;8.87;8.57;;;15.20;99.90;;;;;;5051803;28;20726;-64
2023/07/27 01:27:53;;;;;;;8.40;8.10;;;15.30;99.90;;;;;;5056300;28;20607;-63
2023/07/27 01:30:49;;;;;;;8.43;8.13;;;15.30;99.90;;;;;;5070846;28;20719;-63
2023/07/27 01:33:19;;;;;;;9.10;8.60;;;15.30;99.90;;;;;;5071997;28;20210;-64
2023/07/27 01:35:52;;;;;;;8.37;8.07;;;15.30;99.90;;;;;;5071504;28;20752;-64
2023/07/27 01:38:20;;;;;;;8.70;8.40;;;15.30;99.90;;;;;;5072145;28;20716;-64
2023/07/27 01:40:49;;;;;;;8.27;7.97;;;15.30;99.90;;;;;;5071558;28;20302;-64
2023/07/27 01:43:17;;;;;;;8.33;8.03;;;15.30;99.90;;;;;;5074853;28;20295;-64
2023/07/27 01:45:47;;;;;;;8.43;8.13;;;15.30;99.90;;;;;;5076656;28;20735;-63
2023/07/27 01:48:15;;;;;;;8.00;7.70;;;15.20;99.90;;;;;;5057026;28;20232;-64
2023/07/27 01:50:42;;;;;;;8.13;7.83;;;15.30;99.90;;;;;;5052772;28;20207;-63
2023/07/27 01:53:11;;;;;;;7.93;7.67;;;15.30;99.90;;;;;;5051729;28;20283;-64
2023/07/27 01:55:39;;;;;;;8.43;8.13;;;15.30;99.90;;;;;;5047407;28;20208;-64
2023/07/27 01:58:06;;;;;;;8.37;8.07;;;15.30;99.90;;;;;;5051094;28;20247;-63
2023/07/27 02:00:33;;;;;;;8.37;8.07;;;15.20;99.90;;;;;;5050639;28;20576;-65
2023/07/27 02:03:03;;;;;;;8.17;7.87;;;15.20;99.90;;;;;;5051272;28;20203;-64
2023/07/27 02:05:29;;;;;;;8.43;8.13;;;15.20;99.90;;;;;;5051216;28;20594;-64
2023/07/27 02:07:56;;;;;;;8.17;7.87;;;15.30;99.90;;;;;;5068978;28;20322;-65
2023/07/27 02:10:26;;;;;;;8.60;8.30;;;15.30;99.90;;;;;;5050641;28;20204;-63
2023/07/27 02:13:02;;;;;;;8.33;8.03;;;15.30;99.90;;;;;;5050923;28;20303;-64
2023/07/27 02:15:37;;;;;;;8.50;8.20;;;15.20;99.90;;;;;;5060606;22;20231;-65
2023/07/27 02:18:10;;;;;;;8.23;7.93;;;15.20;99.90;;;;;;5048214;28;20297;-64
2023/07/27 02:20:38;;;;;;;7.87;7.63;;;15.20;99.90;;;;;;5048857;28;20210;-65
2023/07/27 02:23:06;;;;;;;7.80;7.50;;;15.20;99.90;;;;;;5049741;28;20256;-65
2023/07/27 02:25:33;;;;;;;8.13;7.83;;;15.40;99.90;;;;;;5049851;28;20258;-66
2023/07/27 02:28:00;;;;;;;8.13;7.83;;;15.20;99.90;;;;;;5049823;28;20208;-64
2023/07/27 02:30:27;;;;;;;8.23;7.93;;;15.20;99.90;;;;;;5049066;28;20683;-65
2023/07/27 02:32:53;;;;;;;8.43;8.13;;;15.20;99.90;;;;;;5049823;28;20714;-66
2023/07/27 02:35:22;;;;;;;8.37;8.07;;;15.20;99.90;;;;;;5050748;28;20228;-65
2023/07/27 02:37:49;;;;;;;8.37;8.07;;;15.20;99.90;;;;;;5051366;28;20206;-64
2023/07/27 02:40:16;;;;;;;8.30;8.00;;;15.20;99.90;;;;;;5049420;28;20218;-63
2023/07/27 02:42:42;;;;;;;8.30;8.00;;;15.30;99.90;;;;;;5050318;28;20262;-65
2023/07/27 02:45:10;;;;;;;8.27;7.97;;;15.30;99.90;;;;;;5049569;28;20236;-62
2023/07/27 02:47:37;;;;;;;8.30;8.00;;;15.30;99.90;;;;;;5050156;28;20230;-65
2023/07/27 02:50:04;;;;;;;8.07;7.77;;;15.40;99.90;;;;;;5049698;28;20230;-64
2023/07/27 02:52:32;;;;;;;8.30;8.00;;;15.30;99.90;;;;;;5049498;28;20606;-65
2023/07/27 02:54:59;;;;;;;8.07;7.77;;;15.30;99.90;;;;;;5049289;28;20223;-65
2023/07/27 02:57:27;;;;;;;7.70;7.50;;;15.30;99.90;;;;;;5049650;28;20568;-66
2023/07/27 02:59:54;;;;;;;8.70;8.40;;;15.30;99.90;;;;;;5050283;28;20678;-64
2023/07/27 03:02:21;;;;;;;8.20;7.90;;;15.30;99.90;;;;;;5055867;28;20196;-65
2023/07/27 03:04:48;;;;;;;8.30;8.00;;;15.20;99.90;;;;;;5053054;28;20697;-63
2023/07/27 03:07:14;;;;;;;8.33;8.03;;;15.20;99.90;;;;;;5048977;28;20224;-65
2023/07/27 03:09:43;;;;;;;8.67;8.37;;;15.20;99.90;;;;;;5051364;28;20210;-66
2023/07/27 03:12:10;;;;;;;8.23;7.93;;;15.30;99.90;;;;;;5051156;28;20218;-65
2023/07/27 03:14:37;;;;;;;8.43;8.13;;;15.30;99.90;;;;;;5049187;28;20612;-65
2023/07/27 03:17:04;;;;;;;8.30;8.00;;;15.20;99.90;;;;;;5049261;28;20200;-65
2023/07/27 03:19:30;;;;;;;8.30;8.00;;;15.20;99.90;;;;;;5051196;28;20589;-64
2023/07/27 03:21:57;;;;;;;8.40;8.10;;;15.30;99.90;;;;;;5050181;28;20204;-66
2023/07/27 03:24:24;;;;;;;8.07;7.77;;;15.30;99.90;;;;;;5049759;28;20242;-65
2023/07/27 03:26:53;;;;;;;8.48;8.18;;;15.40;99.90;;;;;;5048884;28;20724;-65
2023/07/27 03:29:20;;;;;;;8.20;7.90;;;15.30;99.90;;;;;;5048299;28;20203;-65
2023/07/27 03:31:47;;;;;;;8.50;8.20;;;15.40;99.90;;;;;;5049073;28;20214;-65
2023/07/27 03:34:14;;;;;;;8.00;7.70;;;15.40;99.90;;;;;;5048925;28;20224;-65
2023/07/27 03:36:41;;;;;;;8.30;8.00;;;15.40;99.90;;;;;;5048483;28;20214;-65
2023/07/27 03:39:08;;;;;;;8.53;8.23;;;15.40;99.90;;;;;;5047775;28;20291;-65
2023/07/27 03:41:35;;;;;;;8.47;8.17;;;15.50;99.90;;;;;;5048768;28;20203;-65
2023/07/27 03:44:03;;;;;;;8.10;7.80;;;15.50;99.90;;;;;;5048204;28;20227;-65
2023/07/27 03:46:30;;;;;;;8.47;8.17;;;15.60;99.90;;;;;;5048369;28;20310;-65
2023/07/27 03:48:57;;;;;;;7.93;7.63;;;15.60;99.90;;;;;;5048662;28;20273;-63
2023/07/27 03:51:24;;;;;;;8.27;7.97;;;15.60;99.90;;;;;;5048433;28;20265;-64
2023/07/27 03:53:51;;;;;;;7.83;7.53;;;15.60;99.90;;;;;;5049175;28;20208;-65
2023/07/27 03:56:17;;;;;;;8.20;7.90;;;15.60;99.90;;;;;;5048913;28;20299;-64
2023/07/27 03:58:44;;;;;;;8.07;7.77;;;15.60;99.90;;;;;;5050723;28;20207;-64
2023/07/27 04:01:12;;;;;;;8.50;8.20;;;15.70;99.90;;;;;;5050782;28;20926;-65
2023/07/27 04:03:39;;;;;;;8.50;8.20;;;15.70;99.90;;;;;;5051802;28;20203;-65
2023/07/27 04:06:06;;;;;;;8.63;8.33;;;15.70;99.90;;;;;;5049378;28;20334;-65
2023/07/27 04:08:33;;;;;;;8.63;8.33;;;15.70;99.90;;;;;;5049638;28;20691;-66
2023/07/27 04:10:59;;;;;;;7.80;7.50;;;15.80;99.90;;;;;;5048526;28;20199;-65
2023/07/27 04:13:26;;;;;;;8.37;8.07;;;15.70;99.90;;;;;;5049854;28;20204;-65
2023/07/27 04:15:53;;;;;;;8.33;8.03;;;15.70;99.90;;;;;;5049436;28;20236;-65
2023/07/27 04:18:21;;;;;;;8.33;8.03;;;15.80;99.90;;;;;;5052375;28;20212;-65
2023/07/27 04:20:49;;;;;;;8.37;8.07;;;15.80;99.90;;;;;;5045873;28;20209;-64
2023/07/27 04:23:16;;;;;;;8.40;8.10;;;15.80;99.90;;;;;;5023467;28;20288;-65
2023/07/27 04:25:42;;;;;;;8.30;8.00;;;15.70;99.90;;;;;;5032882;28;20247;-63
2023/07/27 04:28:09;;;;;;;8.23;7.93;;;15.80;99.90;;;;;;5033199;28;20314;-64
2023/07/27 04:30:36;;;;;;;8.80;8.50;;;15.80;99.90;;;;;;5028296;28;20587;-63
2023/07/27 04:33:03;;;;;;;8.40;8.10;;;15.80;99.90;;;;;;5019454;28;20204;-64
2023/07/27 04:35:31;;;;;;;8.57;8.17;;;15.80;99.90;;;;;;5032766;28;20225;-63
2023/07/27 04:37:58;;;;;;;8.60;8.30;;;15.90;99.90;;;;;;5029479;28;20330;-66
2023/07/27 04:40:25;;;;;;;8.60;8.30;;;15.90;99.90;;;;;;5010957;28;20217;-65
2023/07/27 04:42:52;;;;;;;7.93;7.67;;;15.90;99.90;;;;;;5012444;28;20212;-65
2023/07/27 04:45:18;;;;;;;8.63;8.33;;;15.90;99.90;;;;;;5019702;28;20755;-64
2023/07/27 04:47:45;;;;;;;8.70;8.40;;;16.00;99.90;;;;;;5019219;28;20217;-64
2023/07/27 04:50:13;;;;;;;9.00;8.70;;;16.00;99.90;;;;;;5021954;28;20667;-66
2023/07/27 04:52:41;;;;;;;8.80;8.50;;;16.00;99.90;;;;;;5029171;28;20925;-63
2023/07/27 04:55:08;;;;;;;9.40;9.10;;;16.00;99.90;;;;;;5032084;28;20228;-68
2023/07/27 04:57:35;;;;;;;8.80;8.50;;;16.10;99.90;;;;;;5025869;28;20201;-64
2023/07/27 05:00:03;;;;;;;9.40;9.10;;;16.10;99.90;;;;;;5028300;28;20578;-65
2023/07/27 05:02:30;;;;;;;9.07;8.77;;;16.10;99.90;;;;;;5024179;28;20398;-63
2023/07/27 05:04:57;;;;;;;9.23;8.93;;;16.10;99.90;;;;;;5031021;28;20235;-65
2023/07/27 05:07:24;;;;;;;9.27;8.97;;;16.10;99.90;;;;;;5028016;28;20244;-64
2023/07/27 05:09:52;;;;;;;8.83;8.53;;;16.20;99.90;;;;;;5026761;28;20205;-64
2023/07/27 05:12:20;;;;;;;9.23;8.93;;;16.10;99.90;;;;;;5030503;28;20210;-65
2023/07/27 05:14:47;;;;;;;9.40;9.10;;;16.20;99.90;;;;;;5028693;28;20609;-65
2023/07/27 05:17:14;;;;;;;9.50;9.17;;;16.10;99.90;;;;;;5026134;28;20259;-64
2023/07/27 05:19:41;;;;;;;9.70;9.30;;;16.20;99.90;;;;;;5013417;28;20201;-66
2023/07/27 05:22:08;;;;;;;10.03;9.70;;;16.30;99.90;;;;;;5011614;28;20201;-65
2023/07/27 05:24:35;;;;;;;10.20;9.87;;;16.30;99.90;;;;;;5024797;28;20233;-65
2023/07/27 05:27:04;;;;;;;10.00;9.60;;;16.30;99.90;;;;;;5018745;28;20518;-64
2023/07/27 05:29:31;;;;;;;9.57;9.17;;;16.40;99.90;;;;;;5020314;28;20209;-64
2023/07/27 05:31:57;;;;;;;9.33;9.03;;;16.30;99.90;;;;;;5030396;28;20201;-64
2023/07/27 05:34:24;;;;;;;9.80;9.50;;;16.40;99.90;;;;;;5029864;28;20247;-64
2023/07/27 05:36:51;;;;;;;10.73;10.33;;;16.30;99.90;;;;;;5030756;28;20224;-64
2023/07/27 05:39:18;;;;;;;10.07;9.67;;;16.40;99.90;;;;;;5030460;28;20343;-64
2023/07/27 05:41:45;;;;;;;10.40;10.00;;;16.40;99.90;;;;;;5031629;28;20204;-65
2023/07/27 05:44:13;;;;;;;9.77;9.47;;;16.40;99.90;;;;;;5028300;28;20226;-66
2023/07/27 05:46:40;;;;;;;9.80;9.50;;;16.50;99.90;;;;;;5009718;28;20231;-63
2023/07/27 05:49:06;;;;;;;10.50;10.10;;;16.50;99.90;;;;;;5009157;28;20576;-64
2023/07/27 05:51:33;;;;;;;9.60;9.20;;;16.70;99.90;;;;;;5010374;28;20205;-65
2023/07/27 05:54:00;;;;;;;9.90;9.60;;;16.60;99.90;;;;;;5010714;28;20491;-65
2023/07/27 05:56:27;;;;;;;10.20;9.80;;;16.60;99.90;;;;;;5010759;28;20299;-65
2023/07/27 05:58:54;;;;;;;10.20;9.80;;;16.60;99.90;;;;;;5010509;28;20215;-63
2023/07/27 06:01:22;;;;;;;10.13;9.80;;;16.60;99.90;;;;;;5010157;28;20288;-63
2023/07/27 06:03:48;;;;;;;10.02;9.73;;;16.60;99.90;;;;;;5010791;28;20205;-65
2023/07/27 06:06:15;;;;;;;10.03;9.73;;;16.60;99.90;;;;;;5010309;28;20205;-64
2023/07/27 06:08:42;;;;;;;10.13;9.73;;;16.70;99.90;;;;;;5010247;28;20730;-64
2023/07/27 06:11:09;;;;;;;9.80;9.50;;;16.70;99.90;;;;;;5009578;28;20217;-64
2023/07/27 06:13:36;;;;;;;10.00;9.63;;;16.70;99.90;;;;;;5010268;28;20249;-63
2023/07/27 06:16:03;;;;;;;10.20;9.90;;;16.70;99.90;;;;;;5010094;28;20603;-65
2023/07/27 06:18:32;;;;;;;10.43;10.03;;;16.70;99.90;;;;;;5010400;28;20300;-64
2023/07/27 06:20:58;;;;;;;10.17;9.87;;;16.70;99.90;;;;;;5010438;28;20255;-65
2023/07/27 06:23:26;;;;;;;10.73;10.32;;;16.80;99.90;;;;;;5010207;28;20510;-62
2023/07/27 06:25:52;;;;;;;10.40;10.00;;;16.90;99.90;;;;;;5010159;28;20232;-65
2023/07/27 06:28:19;;;;;;;10.80;10.40;;;16.90;99.90;;;;;;5010361;28;20247;-64
2023/07/27 06:30:46;;;;;;;10.33;10.03;;;17.00;99.90;;;;;;5009452;28;20241;-64
2023/07/27 06:33:14;;;;;;;10.13;9.73;;;17.00;99.90;;;;;;5009899;28;20209;-63
2023/07/27 06:35:42;;;;;;;10.07;9.67;;;17.20;99.90;;;;;;5010430;28;20226;-63
2023/07/27 06:38:09;;;;;;;9.83;9.43;;;17.30;99.90;;;;;;5010400;28;20212;-64
2023/07/27 06:40:36;;;;;;;9.63;9.23;;;17.40;99.90;;;;;;5009345;28;20205;-62
2023/07/27 06:43:02;;;;;;;12.50;12.10;;;17.40;99.90;;;;;;5010255;28;20260;-64
2023/07/27 06:45:29;;;;;;;9.47;9.17;;;17.50;99.90;;;;;;5009987;28;20635;-64
2023/07/27 06:47:56;;;;;;;9.70;9.30;;;17.60;99.90;;;;;;5010128;28;20227;-64
2023/07/27 06:50:23;;;;;;;9.20;8.90;;;17.60;99.90;;;;;;5009254;28;20304;-64
2023/07/27 06:52:51;;;;;;;9.20;8.90;;;17.70;99.90;;;;;;5010474;28;20205;-64
2023/07/27 06:55:18;;;;;;;18.90;18.13;;;17.70;99.90;;;;;;5010732;28;20232;-64
2023/07/27 06:57:46;;;;;;;10.10;9.80;;;17.60;99.90;;;;;;5010881;28;20233;-64
2023/07/27 07:00:14;;;;;;;11.47;11.07;;;17.60;99.90;;;;;;5008772;28;20206;-63
2023/07/27 07:02:40;;;;;;;12.07;11.67;;;17.60;99.90;;;;;;5009459;28;20205;-64
2023/07/27 07:05:07;;;;;;;9.53;9.23;;;17.60;99.90;;;;;;5009754;28;20225;-64
2023/07/27 07:07:34;;;;;;;10.27;9.93;;;17.70;99.90;;;;;;5009393;28;20221;-63
2023/07/27 07:10:03;;;;;;;9.97;9.67;;;17.70;99.90;;;;;;5008874;28;20300;-64
2023/07/27 07:12:29;;;;;;;10.03;9.73;;;17.70;99.90;;;;;;5009843;28;20205;-64
2023/07/27 07:14:56;;;;;;;10.27;9.97;;;17.80;99.90;;;;;;5009936;28;20237;-65
2023/07/27 07:17:23;;;;;;;10.17;9.83;;;17.80;99.90;;;;;;5009717;28;20288;-64
2023/07/27 07:19:50;;;;;;;9.80;9.50;;;17.80;99.90;;;;;;5008535;28;20305;-64
2023/07/27 07:22:17;;;;;;;9.83;9.43;;;17.80;99.90;;;;;;5009833;28;20300;-63
2023/07/27 07:24:43;;;;;;;10.27;9.87;;;17.80;99.90;;;;;;5009789;28;20228;-64
2023/07/27 07:27:12;;;;;;;9.97;9.57;;;17.80;99.90;;;;;;5009382;28;20236;-65
2023/07/27 07:29:38;;;;;;;10.03;9.63;;;17.90;99.90;;;;;;5009255;28;20558;-64
2023/07/27 07:32:06;;;;;;;10.07;9.77;;;17.90;99.90;;;;;;5010483;28;20591;-63
2023/07/27 07:34:33;;;;;;;9.60;9.30;;;17.90;99.90;;;;;;5010593;28;20229;-64
2023/07/27 07:37:01;;;;;;;10.07;9.77;;;17.90;99.90;;;;;;5010068;28;20209;-65
2023/07/27 07:39:27;;;;;;;10.20;9.80;;;17.90;99.90;;;;;;5009861;28;20210;-64
2023/07/27 07:41:54;;;;;;;10.00;9.70;;;18.00;99.90;;;;;;5010763;28;20211;-65
2023/07/27 07:44:23;;;;;;;9.70;9.40;;;18.00;99.90;;;;;;5010143;28;20224;-64
2023/07/27 07:46:50;;;;;;;10.17;9.77;;;18.00;99.90;;;;;;5011022;28;20241;-63
2023/07/27 07:49:16;;;;;;;9.77;9.48;;;18.10;99.90;;;;;;5009851;28;20221;-63
2023/07/27 07:51:43;;;;;;;10.80;10.40;;;18.10;99.90;;;;;;5011575;28;20213;-64
2023/07/27 07:54:10;;;;;;;10.03;9.73;;;18.10;99.90;;;;;;5014883;28;20292;-65
2023/07/27 07:56:37;;;;;;;10.63;10.27;;;18.20;99.90;;;;;;5014527;28;20299;-64
2023/07/27 07:59:04;;;;;;;10.13;9.83;;;18.20;99.90;;;;;;5013859;28;20206;-63
2023/07/27 08:01:32;;;;;;;11.17;10.77;;;18.30;99.90;;;;;;5013873;28;20213;-65
2023/07/27 08:03:59;;;;;;;10.93;10.53;;;18.30;99.90;;;;;;5013185;28;20235;-66
2023/07/27 08:06:26;;;;;;;11.70;11.30;;;18.30;99.90;;;;;;5015101;28;20211;-63
2023/07/27 08:08:53;;;;;;;10.93;10.52;;;18.30;99.90;;;;;;5017968;28;20316;-63
2023/07/27 08:11:20;;;;;;;11.63;11.23;;;18.40;99.90;;;;;;5033814;28;20254;-64
2023/07/27 08:13:47;;;;;;;12.30;11.90;;;18.40;99.90;;;;;;5034267;28;20268;-63
2023/07/27 08:16:13;;;;;;;12.73;12.32;;;18.50;99.90;;;;;;5033762;28;20204;-65
2023/07/27 08:18:42;;;;;;;11.95;11.55;;;18.60;99.90;;;;;;5033094;28;20650;-64
2023/07/27 08:21:09;;;;;;;11.23;10.82;;;18.60;99.90;;;;;;5032307;28;20215;-64
2023/07/27 08:23:36;;;;;;;12.13;11.73;;;18.60;99.90;;;;;;5030292;28;20239;-65
2023/07/27 08:26:07;;;;;;;12.45;11.95;;;18.60;99.90;;;;;;5027559;28;20704;-64
2023/07/27 08:28:34;;;;;;;11.90;11.50;;;18.60;99.90;;;;;;5011576;28;20232;-61
2023/07/27 08:31:03;;;;;;;12.73;12.23;;;18.60;99.90;;;;;;5022401;28;20581;-64
2023/07/27 08:33:30;;;;;;;11.60;11.20;;;18.70;99.90;;;;;;5031163;28;20307;-64
2023/07/27 08:35:58;;;;;;;12.57;12.17;;;18.80;99.90;;;;;;5030786;28;20750;-65
2023/07/27 08:38:25;;;;;;;12.10;11.70;;;18.80;99.90;;;;;;5031806;28;20231;-63
2023/07/27 08:40:55;;;;;;;12.97;12.47;;;18.90;99.90;;;;;;5030471;28;20331;-65
2023/07/27 08:43:22;;;;;;;13.27;12.83;;;18.90;99.90;;;;;;5017557;28;20205;-65
2023/07/27 08:45:50;;;;;;;12.53;12.13;;;19.00;99.90;;;;;;5011687;28;20233;-65
2023/07/27 08:48:17;;;;;;;12.30;11.90;;;19.00;99.90;;;;;;5010706;28;20684;-65
2023/07/27 08:50:45;;;;;;;12.03;11.63;;;19.00;99.90;;;;;;5031510;28;20213;-65
2023/07/27 08:53:14;;;;;;;11.40;11.00;;;18.90;99.90;;;;;;5032331;28;20207;-66
2023/07/27 08:55:41;;;;;;;11.77;11.37;;;19.00;99.90;;;;;;5032091;28;20221;-65
2023/07/27 08:58:08;;;;;;;11.83;11.43;;;19.10;99.90;;;;;;5032172;28;20315;-64
2023/07/27 09:00:35;;;;;;;12.10;11.70;;;19.10;99.90;;;;;;5031205;28;20201;-66
2023/07/27 09:03:02;;;;;;;15.53;14.93;;;19.20;99.90;;;;;;5030705;28;20685;-67
2023/07/27 09:05:41;;;;;;;11.68;11.27;;;19.20;99.90;;;;;;5031180;28;20259;-65
2023/07/27 09:08:09;;;;;;;11.70;11.30;;;19.30;99.90;;;;;;5032221;28;20217;-65
2023/07/27 09:10:38;;;;;;;11.75;11.35;;;19.30;99.90;;;;;;5031496;28;20303;-65
2023/07/27 09:13:05;;;;;;;11.73;11.33;;;19.40;99.90;;;;;;5031821;28;20292;-66
2023/07/27 09:15:34;;;;;;;13.65;13.18;;;19.40;99.90;;;;;;5031708;28;20281;-66
2023/07/27 09:18:02;;;;;;;11.23;10.82;;;19.40;99.90;;;;;;5031670;28;20587;-65
2023/07/27 09:20:29;;;;;;;11.67;11.27;;;19.40;99.90;;;;;;5030914;28;20208;-64
2023/07/27 09:22:56;;;;;;;11.60;11.20;;;19.50;99.90;;;;;;5031257;28;20208;-62
2023/07/27 09:25:24;;;;;;;12.27;11.77;;;19.50;99.90;;;;;;5032063;28;20316;-65
2023/07/27 09:27:55;;;;;;;12.90;12.40;;;19.50;99.90;;;;;;5032206;28;20228;-64
2023/07/27 09:30:23;;;;;;;11.68;11.27;;;19.60;99.90;;;;;;5031219;28;20203;-65
2023/07/27 09:32:51;;;;;;;12.27;11.88;;;19.60;99.90;;;;;;5032345;28;20235;-66
2023/07/27 09:35:19;;;;;;;12.75;12.35;;;19.70;99.90;;;;;;5031473;28;20229;-66
2023/07/27 09:37:47;;;;;;;12.52;12.13;;;19.70;99.90;;;;;;5032017;28;20215;-67
2023/07/27 09:40:16;;;;;;;11.90;11.50;;;19.80;99.90;;;;;;5034585;28;20215;-65
2023/07/27 09:42:45;;;;;;;13.23;12.73;;;19.80;99.90;;;;;;5042083;28;20241;-65
2023/07/27 09:45:14;;;;;;;12.20;11.75;;;20.00;99.90;;;;;;5040355;28;20567;-66
2023/07/27 09:47:41;;;;;;;12.95;12.55;;;20.10;99.90;;;;;;5042942;28;20205;-64
2023/07/27 09:50:09;;;;;;;13.02;12.52;;;20.10;99.90;;;;;;5040559;28;20911;-66
2023/07/27 09:52:39;;;;;;;11.32;10.93;;;20.20;99.90;;;;;;5038304;28;20216;-66
2023/07/27 09:55:06;;;;;;;13.05;12.60;;;20.30;99.90;;;;;;5032614;28;20228;-64
2023/07/27 09:57:33;;;;;;;13.82;13.32;;;20.50;99.90;;;;;;5032337;28;20702;-64
2023/07/27 10:00:01;;;;;;;12.95;12.52;;;20.70;99.90;;;;;;5031375;28;20299;-64
2023/07/27 10:02:29;;;;;;;13.68;13.23;;;20.80;99.90;;;;;;5030773;28;20200;-63
2023/07/27 10:04:56;;;;;;;12.35;11.93;;;20.90;99.90;;;;;;5031726;28;20773;-65
2023/07/27 10:07:26;;;;;;;11.65;11.25;;;21.10;99.90;;;;;;5031573;28;20295;-65
2023/07/27 10:10:26;;;;;;;11.65;11.25;;;21.20;99.90;;;;;;5030811;28;20252;-66
2023/07/27 10:12:55;;;;;;;11.20;10.80;;;21.20;99.90;;;;;;5031013;28;20201;-66
2023/07/27 10:15:26;;;;;;;12.15;11.75;;;21.30;99.90;;;;;;5030750;28;20250;-66
2023/07/27 10:17:57;;;;;;;11.52;11.13;;;21.50;99.90;;;;;;5030574;28;20211;-66
2023/07/27 10:20:27;;;;;;;11.02;10.65;;;21.70;99.90;;;;;;5030389;28;20664;-64
2023/07/27 10:23:09;;;;;;;12.13;11.73;;;21.80;99.90;;;;;;5031127;28;20211;-66
2023/07/27 10:26:01;;;;;;;12.52;12.13;;;22.00;99.90;;;;;;5031188;28;20228;-66
2023/07/27 10:28:31;;;;;;;12.70;12.30;;;22.20;99.90;;;;;;5030436;28;20241;-64
2023/07/27 10:31:23;;;;;;;14.32;13.82;;;22.40;99.90;;;;;;5029084;28;20762;-65
2023/07/27 10:33:56;;;;;;;13.60;13.10;;;22.40;99.90;;;;;;5030966;28;20242;-67
2023/07/27 10:36:23;;;;;;;15.05;14.55;;;22.40;99.90;;;;;;5031079;28;20295;-65
2023/07/27 10:38:54;;;;;;;14.90;14.40;;;22.50;99.90;;;;;;5030757;28;20244;-62
2023/07/27 10:41:23;;;;;;;14.20;13.70;;;22.60;99.90;;;;;;5029714;28;20212;-65
2023/07/27 10:44:18;;;;;;;14.95;14.45;;;22.70;99.90;;;;;;5030887;28;20591;-64
2023/07/27 10:46:48;;;;;;;15.20;14.70;;;22.80;99.90;;;;;;5030637;28;20208;-63
2023/07/27 10:49:17;;;;;;;15.85;15.35;;;22.70;99.90;;;;;;5029561;28;20312;-65
2023/07/27 10:51:46;;;;;;;14.82;14.32;;;22.80;99.90;;;;;;5029928;28;20902;-66
2023/07/27 10:54:14;;;;;;;15.88;15.35;;;22.80;99.90;;;;;;5030150;28;20236;-65
2023/07/27 10:56:43;;;;;;;15.52;15.00;;;22.70;99.90;;;;;;5030446;28;20294;-65
2023/07/27 10:59:14;;;;;;;15.13;14.63;;;22.60;99.90;;;;;;5029271;28;20204;-65
2023/07/27 11:01:42;;;;;;;15.85;15.35;;;22.60;99.90;;;;;;5031306;28;20238;-68
2023/07/27 11:04:11;;;;;;;18.58;17.98;;;22.60;99.90;;;;;;5030199;28;20221;-65
2023/07/27 11:06:43;;;;;;;17.23;16.63;;;22.50;99.90;;;;;;5032297;28;20213;-65
2023/07/27 11:09:15;;;;;;;17.35;16.75;;;22.30;99.90;;;;;;5029865;28;20602;-66
2023/07/27 11:11:41;;;;;;;15.60;15.10;;;22.20;99.90;;;;;;5012222;28;20612;-65
2023/07/27 11:14:08;;;;;;;15.75;15.25;;;22.10;99.90;;;;;;5024166;28;20334;-64
2023/07/27 11:16:37;;;;;;;14.75;14.25;;;22.00;99.90;;;;;;5030903;28;20299;-65
2023/07/27 11:19:06;;;;;;;14.05;13.55;;;21.90;99.90;;;;;;5019222;28;20201;-64
2023/07/27 11:21:33;;;;;;;14.32;13.82;;;21.80;99.90;;;;;;5027590;28;20204;-65
2023/07/27 11:24:03;;;;;;;15.15;14.65;;;21.80;99.90;;;;;;5029419;28;20228;-66
2023/07/27 11:26:30;;;;;;;17.67;17.07;;;21.90;99.90;;;;;;5028082;28;20204;-66
2023/07/27 11:28:58;;;;;;;16.75;16.15;;;21.80;99.90;;;;;;5029446;28;20315;-67
2023/07/27 11:31:25;;;;;;;15.57;15.07;;;21.90;99.90;;;;;;5029357;28;20201;-67
2023/07/27 11:33:56;;;;;;;17.03;16.43;;;21.90;99.90;;;;;;5019673;28;20197;-65
2023/07/27 11:36:23;;;;;;;15.40;14.90;;;22.00;99.90;;;;;;5026843;28;20201;-65
2023/07/27 11:38:50;;;;;;;17.50;16.90;;;22.00;99.90;;;;;;5021298;28;20209;-65
2023/07/27 11:41:18;;;;;;;16.30;15.70;;;21.90;99.90;;;;;;5015777;28;20260;-64
2023/07/27 11:43:45;;;;;;;34.30;32.42;;;21.90;99.90;;;;;;5014799;28;20205;-67
2023/07/27 11:46:12;;;;;;;21.30;20.50;;;21.90;99.90;;;;;;5028859;28;20228;-65
2023/07/27 11:48:39;;;;;;;17.35;16.75;;;22.00;99.90;;;;;;5011503;28;20221;-66
2023/07/27 11:51:06;;;;;;;15.90;15.38;;;22.10;99.90;;;;;;5010428;28;20263;-65
2023/07/27 11:53:34;;;;;;;16.13;15.57;;;22.30;99.90;;;;;;5010355;28;20211;-65
2023/07/27 11:56:01;;;;;;;17.35;16.75;;;22.30;99.90;;;;;;5012271;28;20319;-64
2023/07/27 11:58:30;;;;;;;16.23;15.70;;;22.20;99.90;;;;;;5012473;28;20689;-65
2023/07/27 12:00:57;;;;;;;17.23;16.63;;;22.20;99.90;;;;;;5018623;28;20295;-65
2023/07/27 12:03:25;;;;;;;17.98;17.38;;;22.20;99.90;;;;;;5020154;28;20738;-65
2023/07/27 12:05:55;;;;;;;15.93;15.43;;;22.20;99.90;;;;;;5020929;28;20224;-66
2023/07/27 12:08:22;;;;;;;15.98;15.48;;;22.10;99.90;;;;;;5016586;28;20213;-65
2023/07/27 12:10:53;;;;;;;15.25;14.75;;;22.10;99.90;;;;;;5014429;28;20196;-66
2023/07/27 12:13:22;;;;;;;15.45;14.95;;;22.00;99.90;;;;;;5020534;28;20287;-66
2023/07/27 12:15:58;;;;;;;14.38;13.88;;;21.90;99.90;;;;;;5015133;28;20237;-68
2023/07/27 12:18:26;;;;;;;21.38;20.55;;;21.90;99.90;;;;;;5021910;28;20208;-64
2023/07/27 12:20:53;;;;;;;16.40;15.85;;;21.90;99.90;;;;;;5021649;28;20296;-64
2023/07/27 12:23:20;;;;;;;15.20;14.70;;;22.00;99.90;;;;;;5029389;28;21036;-66
2023/07/27 12:25:47;;;;;;;16.85;16.25;;;22.00;99.90;;;;;;5029774;28;20220;-64
2023/07/27 12:28:14;;;;;;;16.60;16.00;;;22.00;99.90;;;;;;5015743;28;21597;-65
2023/07/27 12:30:41;;;;;;;16.52;15.93;;;22.10;99.90;;;;;;5018401;28;20225;-63
2023/07/27 12:33:09;;;;;;;15.82;15.30;;;22.10;99.90;;;;;;5030423;28;20205;-66
2023/07/27 12:35:36;;;;;;;15.45;14.95;;;22.30;99.90;;;;;;5017711;28;20741;-65
2023/07/27 12:38:03;;;;;;;14.98;14.48;;;22.40;99.90;;;;;;5021924;28;20580;-65
2023/07/27 12:40:30;;;;;;;18.83;18.20;;;22.60;99.90;;;;;;5026066;28;20640;-65
2023/07/27 12:42:58;;;;;;;19.95;19.23;;;22.80;99.90;;;;;;5023584;28;20671;-66